Time;durP1;ratioP1;P1;durP2;ratioP2;P2;SDS_P1;SDS_P2;PMS_P1;PMS_P2;Temp;Humidity;BMP_temperature;BMP_pressure;BME280_temperature;BME280_humidity;BME280_pressure;Samples;Min_cycle;Max_cycle;Signal;HPM_P1;HPM_P2
2022/05/07 00:01:19;;;;;;;15.13;9.30;;;11.10;90.00;;;;;;5056097;28;20201;-77
2022/05/07 00:03:46;;;;;;;15.73;8.40;;;11.10;90.00;;;;;;5051107;28;20181;-77
2022/05/07 00:06:12;;;;;;;13.10;8.00;;;11.10;90.00;;;;;;5050881;28;20443;-78
2022/05/07 00:08:38;;;;;;;15.90;8.20;;;11.10;90.00;;;;;;5051018;28;20458;-78
2022/05/07 00:11:03;;;;;;;14.03;8.80;;;11.10;90.00;;;;;;5050799;28;20458;-75
2022/05/07 00:13:29;;;;;;;13.90;8.10;;;11.00;90.10;;;;;;5050937;28;20191;-77
2022/05/07 00:18:39;;;;;;;16.33;8.30;;;11.00;90.10;;;;;;5052827;28;20219;-76
2022/05/07 00:21:04;;;;;;;13.60;8.20;;;10.90;90.30;;;;;;5052308;28;20431;-78
2022/05/07 00:23:30;;;;;;;14.83;9.27;;;10.90;90.30;;;;;;5050916;28;20180;-78
2022/05/07 00:25:56;;;;;;;15.20;8.30;;;10.80;90.40;;;;;;5052974;28;20839;-76
2022/05/07 00:28:22;;;;;;;17.50;9.20;;;10.80;90.50;;;;;;5051681;28;20415;-77
2022/05/07 00:30:48;;;;;;;13.37;7.83;;;10.80;90.60;;;;;;5050349;28;20438;-77
2022/05/07 00:33:14;;;;;;;16.80;8.10;;;10.70;90.70;;;;;;5051492;28;20236;-77
2022/05/07 00:35:40;;;;;;;12.47;8.10;;;10.60;90.70;;;;;;5051219;28;20913;-77
2022/05/07 00:38:06;;;;;;;13.70;9.10;;;10.60;90.90;;;;;;5050542;28;20655;-76
2022/05/07 00:40:32;;;;;;;11.63;7.23;;;10.50;91.00;;;;;;5050995;28;20449;-75
2022/05/07 00:42:57;;;;;;;13.17;8.20;;;10.60;90.90;;;;;;5050003;28;20829;-77
2022/05/07 00:45:23;;;;;;;15.30;8.53;;;10.50;90.90;;;;;;5050450;28;20875;-76
2022/05/07 00:47:49;;;;;;;11.77;7.43;;;10.40;91.10;;;;;;5049890;28;20180;-76
2022/05/07 00:53:00;;;;;;;17.50;8.50;;;10.50;91.10;;;;;;5050229;28;20438;-76
2022/05/07 00:55:28;;;;;;;13.00;8.53;;;10.50;91.20;;;;;;5051577;28;20430;-76
2022/05/07 00:57:55;;;;;;;12.80;8.30;;;10.40;91.10;;;;;;5051947;28;20458;-75
2022/05/07 01:00:21;;;;;;;12.70;7.80;;;10.40;91.40;;;;;;5052870;28;20445;-77
2022/05/07 01:02:47;;;;;;;15.73;8.40;;;10.40;91.30;;;;;;5051392;28;20419;-76
2022/05/07 01:05:13;;;;;;;13.23;8.07;;;10.40;91.40;;;;;;5054123;28;20184;-78
2022/05/07 01:07:40;;;;;;;13.53;8.00;;;10.40;91.30;;;;;;5052645;28;20479;-75
2022/05/07 01:10:07;;;;;;;11.53;7.97;;;10.40;91.40;;;;;;5051717;28;20307;-77
2022/05/07 01:12:35;;;;;;;13.40;7.83;;;10.40;91.40;;;;;;5049138;28;20447;-76
2022/05/07 01:15:01;;;;;;;13.60;7.67;;;10.40;91.30;;;;;;5048358;28;20458;-76
2022/05/07 01:17:26;;;;;;;15.20;9.00;;;10.40;91.30;;;;;;5049101;28;20492;-75
2022/05/07 01:19:54;;;;;;;15.80;8.23;;;10.50;91.30;;;;;;5047864;28;20435;-75
2022/05/07 01:22:22;;;;;;;17.43;7.70;;;10.40;91.00;;;;;;5044356;28;20259;-75
2022/05/07 01:24:48;;;;;;;13.10;8.03;;;10.20;90.90;;;;;;5047325;28;20419;-75
2022/05/07 01:27:14;;;;;;;12.80;8.60;;;10.20;90.90;;;;;;5049066;28;20917;-75
2022/05/07 01:29:39;;;;;;;11.37;7.33;;;10.20;91.00;;;;;;5049224;28;20239;-75
2022/05/07 01:32:06;;;;;;;14.03;8.67;;;10.20;91.00;;;;;;5047709;28;20234;-75
2022/05/07 01:34:31;;;;;;;12.30;8.50;;;10.20;91.10;;;;;;5053008;28;20185;-75
2022/05/07 01:36:57;;;;;;;13.65;9.10;;;10.10;91.30;;;;;;5049947;28;20995;-75
2022/05/07 01:39:23;;;;;;;16.30;8.00;;;10.10;91.30;;;;;;5050363;28;20440;-75
2022/05/07 01:41:48;;;;;;;14.60;8.57;;;10.10;91.60;;;;;;5057167;28;20187;-73
2022/05/07 01:44:14;;;;;;;15.87;8.20;;;10.10;91.60;;;;;;5074809;28;20196;-75
2022/05/07 01:49:24;;;;;;;13.90;8.13;;;10.00;91.60;;;;;;5051472;28;20200;-76
2022/05/07 01:51:50;;;;;;;14.57;8.00;;;10.00;91.60;;;;;;5049996;28;20439;-75
2022/05/07 01:54:16;;;;;;;14.30;8.27;;;10.00;91.60;;;;;;5051817;28;20226;-76
2022/05/07 01:56:41;;;;;;;15.60;8.03;;;9.90;91.50;;;;;;5052346;28;20217;-76
2022/05/07 01:59:07;;;;;;;13.33;7.67;;;9.90;91.50;;;;;;5051852;28;20269;-76
2022/05/07 02:01:33;;;;;;;14.77;8.07;;;9.80;91.50;;;;;;5053627;28;20218;-76
2022/05/07 02:03:59;;;;;;;17.43;8.20;;;9.80;91.50;;;;;;5062925;28;20216;-76
2022/05/07 02:06:24;;;;;;;15.43;7.80;;;9.70;91.70;;;;;;5064214;28;20193;-75
2022/05/07 02:08:50;;;;;;;14.03;8.47;;;9.60;91.80;;;;;;5056922;28;20188;-75
2022/05/07 02:11:16;;;;;;;14.90;8.20;;;9.60;91.90;;;;;;5052734;28;20668;-76
2022/05/07 02:13:41;;;;;;;15.37;7.93;;;9.60;91.90;;;;;;5052752;28;20196;-75
2022/05/07 02:16:07;;;;;;;13.27;7.77;;;9.60;92.10;;;;;;5052209;28;20550;-75
2022/05/07 02:18:33;;;;;;;12.33;8.00;;;9.70;92.00;;;;;;5052400;28;20204;-76
2022/05/07 02:20:59;;;;;;;12.53;8.20;;;9.70;92.00;;;;;;5052807;28;20228;-77
2022/05/07 02:23:24;;;;;;;16.47;9.33;;;9.70;91.90;;;;;;5051192;28;20191;-75
2022/05/07 02:25:50;;;;;;;15.00;9.30;;;9.80;92.10;;;;;;5056957;28;20666;-76
2022/05/07 02:28:17;;;;;;;19.00;8.30;;;9.80;92.20;;;;;;5056536;28;20270;-76
2022/05/07 02:30:43;;;;;;;14.50;8.57;;;9.90;91.90;;;;;;5056984;28;20870;-74
2022/05/07 02:33:08;;;;;;;13.10;7.80;;;9.90;91.80;;;;;;5055257;28;20431;-77
2022/05/07 02:35:34;;;;;;;11.97;7.93;;;9.90;91.70;;;;;;5053441;28;20422;-76
2022/05/07 02:38:00;;;;;;;10.97;7.83;;;9.90;91.80;;;;;;5051254;28;20208;-78
2022/05/07 02:40:26;;;;;;;16.33;9.67;;;9.90;91.90;;;;;;5052748;28;20216;-76
2022/05/07 02:42:51;;;;;;;13.87;7.93;;;9.90;91.90;;;;;;5051467;28;20189;-75
2022/05/07 02:45:17;;;;;;;13.10;7.40;;;9.90;91.80;;;;;;5052811;28;20184;-76
2022/05/07 02:47:43;;;;;;;14.90;7.67;;;9.80;91.70;;;;;;5057902;28;20181;-75
2022/05/07 02:50:10;;;;;;;16.23;8.30;;;9.80;91.60;;;;;;5053563;28;20443;-76
2022/05/07 02:52:37;;;;;;;15.40;7.40;;;9.70;91.50;;;;;;5054058;28;20431;-78
2022/05/07 02:55:08;;;;;;;16.63;8.40;;;9.70;91.70;;;;;;5053562;28;20460;-75
2022/05/07 02:57:33;;;;;;;11.83;7.70;;;9.60;91.70;;;;;;5052626;28;20477;-75
2022/05/07 02:59:59;;;;;;;17.73;8.97;;;9.60;91.80;;;;;;5052739;28;20523;-77
2022/05/07 03:02:25;;;;;;;12.37;7.37;;;9.50;91.90;;;;;;5051616;28;20180;-75
2022/05/07 03:04:52;;;;;;;11.43;7.43;;;9.40;91.90;;;;;;5052617;28;20180;-75
2022/05/07 03:07:17;;;;;;;14.60;8.00;;;9.30;92.00;;;;;;5051357;28;20419;-75
2022/05/07 03:09:43;;;;;;;11.90;7.53;;;9.40;92.00;;;;;;5051420;28;21353;-75
2022/05/07 03:12:09;;;;;;;12.80;7.50;;;9.40;91.70;;;;;;5052596;28;20188;-75
2022/05/07 03:14:38;;;;;;;14.37;8.07;;;9.40;91.60;;;;;;5052742;28;20427;-75
2022/05/07 03:17:04;;;;;;;13.83;7.67;;;9.30;91.80;;;;;;5051342;28;20423;-75
2022/05/07 03:19:30;;;;;;;12.07;7.30;;;9.30;92.00;;;;;;5052581;28;20423;-75
2022/05/07 03:21:56;;;;;;;12.70;7.70;;;9.30;92.10;;;;;;5052649;28;20188;-75
2022/05/07 03:24:22;;;;;;;13.50;7.80;;;9.30;92.20;;;;;;5052616;28;20429;-75
2022/05/07 03:26:48;;;;;;;12.33;7.07;;;9.20;92.30;;;;;;5052363;28;20191;-76
2022/05/07 03:29:14;;;;;;;13.57;8.10;;;9.20;92.40;;;;;;5052662;28;20521;-77
2022/05/07 03:31:39;;;;;;;14.00;7.93;;;9.20;92.50;;;;;;5052428;28;20213;-76
2022/05/07 03:34:09;;;;;;;12.57;7.60;;;9.10;92.50;;;;;;5053174;28;20414;-76
2022/05/07 03:36:35;;;;;;;12.67;7.77;;;9.10;92.70;;;;;;5056067;28;20187;-76
2022/05/07 03:39:01;;;;;;;14.50;7.20;;;9.20;92.80;;;;;;5063898;28;20454;-75
2022/05/07 03:41:27;;;;;;;15.63;8.30;;;9.20;92.70;;;;;;5056682;28;20505;-76
2022/05/07 03:43:53;;;;;;;11.93;7.47;;;9.20;92.70;;;;;;5056013;28;20184;-76
2022/05/07 03:46:18;;;;;;;11.60;7.00;;;9.20;92.70;;;;;;5057534;28;20188;-75
2022/05/07 03:48:44;;;;;;;12.73;6.90;;;9.20;92.70;;;;;;5052450;28;21107;-76
2022/05/07 03:51:10;;;;;;;16.90;7.63;;;9.20;92.50;;;;;;5054760;28;20287;-76
2022/05/07 03:53:36;;;;;;;14.23;8.13;;;9.20;92.10;;;;;;5052563;28;20323;-75
2022/05/07 03:56:04;;;;;;;15.50;8.23;;;9.10;92.00;;;;;;5051033;28;20258;-77
2022/05/07 03:58:30;;;;;;;13.40;7.43;;;9.10;92.10;;;;;;5059314;28;20546;-75
2022/05/07 04:00:57;;;;;;;21.53;8.87;;;9.10;92.20;;;;;;5061870;28;20474;-76
2022/05/07 04:03:23;;;;;;;11.20;7.43;;;8.90;92.30;;;;;;5061792;28;20208;-76
2022/05/07 04:05:50;;;;;;;15.77;8.13;;;8.90;92.30;;;;;;5059111;28;20415;-77
2022/05/07 04:08:16;;;;;;;14.87;8.20;;;8.90;92.40;;;;;;5043129;28;20521;-76
2022/05/07 04:10:42;;;;;;;14.30;8.53;;;8.90;92.50;;;;;;5045461;28;21340;-76
2022/05/07 04:13:10;;;;;;;14.83;8.47;;;9.00;92.50;;;;;;5050602;28;20427;-76
2022/05/07 04:15:37;;;;;;;18.33;9.30;;;9.00;92.60;;;;;;5048871;28;20419;-77
2022/05/07 04:18:04;;;;;;;14.30;8.73;;;8.90;92.70;;;;;;5049788;28;20459;-76
2022/05/07 04:20:30;;;;;;;12.37;8.20;;;9.00;92.80;;;;;;5047765;28;20502;-76
2022/05/07 04:22:56;;;;;;;14.10;8.33;;;9.00;92.90;;;;;;5050189;28;21064;-77
2022/05/07 04:25:21;;;;;;;13.07;8.27;;;9.10;92.90;;;;;;5047968;28;20510;-76
2022/05/07 04:27:47;;;;;;;12.73;7.80;;;9.10;92.90;;;;;;5049773;28;20431;-76
2022/05/07 04:30:13;;;;;;;14.50;8.47;;;9.10;92.70;;;;;;5049294;28;20205;-76
2022/05/07 04:32:39;;;;;;;13.30;8.20;;;9.10;92.60;;;;;;5049763;28;20188;-76
2022/05/07 04:35:06;;;;;;;13.33;8.10;;;9.00;92.40;;;;;;5050081;28;20499;-76
2022/05/07 04:37:32;;;;;;;11.30;7.53;;;8.90;92.10;;;;;;5049957;28;20204;-76
2022/05/07 04:39:57;;;;;;;14.60;8.50;;;8.90;92.10;;;;;;5049805;28;20920;-76
2022/05/07 04:42:23;;;;;;;14.80;8.90;;;8.80;91.90;;;;;;5050667;28;20184;-76
2022/05/07 04:44:49;;;;;;;13.63;7.60;;;8.90;92.10;;;;;;5050192;28;20191;-76
2022/05/07 04:47:15;;;;;;;12.13;7.23;;;8.90;92.20;;;;;;5049689;28;20184;-77
2022/05/07 04:49:41;;;;;;;21.83;9.67;;;8.90;92.30;;;;;;5052456;28;20180;-76
2022/05/07 04:52:07;;;;;;;15.13;7.80;;;8.90;92.30;;;;;;5053031;28;20177;-74
2022/05/07 04:54:33;;;;;;;15.20;8.90;;;8.90;92.40;;;;;;5052713;28;20475;-76
2022/05/07 04:56:59;;;;;;;15.80;9.10;;;9.00;92.40;;;;;;5052252;28;20419;-76
2022/05/07 04:59:25;;;;;;;13.67;8.40;;;9.10;92.60;;;;;;5052119;28;20494;-75
2022/05/07 05:01:51;;;;;;;17.27;8.50;;;9.20;92.70;;;;;;5050053;28;20444;-76
2022/05/07 05:04:17;;;;;;;18.23;9.13;;;9.30;92.60;;;;;;5050243;28;20415;-76
2022/05/07 05:06:44;;;;;;;15.37;8.23;;;9.40;92.40;;;;;;5049331;28;20188;-76
2022/05/07 05:09:12;;;;;;;17.20;8.90;;;9.50;92.30;;;;;;5049290;28;20430;-75
2022/05/07 05:11:38;;;;;;;19.67;9.13;;;9.60;92.10;;;;;;5049513;28;20850;-75
2022/05/07 05:16:48;;;;;;;20.97;10.03;;;9.80;91.90;;;;;;5048500;28;20199;-75
2022/05/07 05:19:14;;;;;;;15.67;9.10;;;9.90;91.80;;;;;;5047730;28;20470;-76
2022/05/07 05:21:41;;;;;;;15.00;9.23;;;10.00;91.70;;;;;;5049031;28;20431;-76
2022/05/07 05:24:07;;;;;;;14.87;9.07;;;10.10;91.70;;;;;;5049394;28;20188;-76
2022/05/07 05:26:33;;;;;;;13.70;8.67;;;10.10;91.00;;;;;;5051379;28;20506;-76
2022/05/07 05:28:59;;;;;;;17.50;8.70;;;10.10;90.40;;;;;;5053815;28;20477;-76
2022/05/07 05:31:24;;;;;;;13.60;8.20;;;10.20;90.10;;;;;;5056931;28;20223;-73
2022/05/07 05:33:50;;;;;;;13.40;8.73;;;10.30;89.60;;;;;;5055060;28;20196;-76
2022/05/07 05:36:16;;;;;;;13.30;8.63;;;10.30;89.30;;;;;;5053248;28;20398;-77
2022/05/07 05:38:41;;;;;;;13.17;7.83;;;10.40;88.90;;;;;;5052992;28;20262;-75
2022/05/07 05:41:07;;;;;;;14.67;8.73;;;10.40;88.60;;;;;;5052483;28;20681;-75
2022/05/07 05:43:33;;;;;;;13.03;8.27;;;10.40;88.70;;;;;;5053362;28;20223;-73
2022/05/07 05:45:59;;;;;;;13.57;7.87;;;10.50;88.40;;;;;;5053357;28;20191;-73
2022/05/07 05:48:29;;;;;;;13.43;8.70;;;10.60;88.40;;;;;;5053115;28;20294;-74
2022/05/07 05:50:55;;;;;;;16.40;9.40;;;10.70;88.00;;;;;;5054218;28;20198;-73
2022/05/07 05:53:21;;;;;;;13.90;8.40;;;10.80;87.70;;;;;;5054177;28;20455;-74
2022/05/07 05:55:47;;;;;;;15.50;9.20;;;11.00;87.40;;;;;;5053083;28;20419;-74
2022/05/07 05:58:13;;;;;;;16.43;8.87;;;11.10;87.10;;;;;;5052874;28;20219;-74
2022/05/07 06:00:39;;;;;;;16.10;10.17;;;11.20;87.00;;;;;;5052341;28;20553;-74
2022/05/07 06:03:05;;;;;;;19.00;10.17;;;11.30;86.80;;;;;;5053243;28;20980;-73
2022/05/07 06:05:30;;;;;;;15.03;9.30;;;11.40;86.50;;;;;;5053302;28;20181;-73
2022/05/07 06:07:56;;;;;;;16.47;9.87;;;11.40;86.20;;;;;;5055218;28;20852;-74
2022/05/07 06:10:22;;;;;;;18.43;11.17;;;11.50;86.50;;;;;;5058947;28;20682;-76
2022/05/07 06:12:49;;;;;;;15.50;9.87;;;11.60;86.50;;;;;;5053467;28;20476;-72
2022/05/07 06:15:14;;;;;;;20.70;11.57;;;11.80;86.30;;;;;;5053272;28;20784;-73
2022/05/07 06:17:40;;;;;;;24.47;13.37;;;11.80;86.60;;;;;;5053011;28;20459;-72
2022/05/07 06:20:07;;;;;;;27.93;13.27;;;11.90;87.00;;;;;;5052477;28;20658;-74
2022/05/07 06:22:32;;;;;;;21.40;12.40;;;11.90;87.10;;;;;;5053203;28;20179;-72
2022/05/07 06:27:42;;;;;;;23.40;13.27;;;12.00;87.30;;;;;;5052914;28;20227;-71
2022/05/07 06:30:09;;;;;;;24.63;15.07;;;12.10;87.10;;;;;;5053706;28;20471;-73
2022/05/07 06:32:40;;;;;;;25.67;14.93;;;12.20;87.10;;;;;;5053612;28;20191;-75
2022/05/07 06:35:07;;;;;;;21.43;13.07;;;12.30;87.10;;;;;;5053655;28;20431;-75
2022/05/07 06:37:34;;;;;;;22.73;14.97;;;12.40;87.00;;;;;;5052885;28;21069;-77
2022/05/07 06:40:01;;;;;;;23.17;14.10;;;12.40;86.90;;;;;;5053670;28;20439;-74
2022/05/07 06:42:27;;;;;;;26.20;13.97;;;12.50;86.60;;;;;;5052734;28;20419;-75
2022/05/07 06:44:53;;;;;;;24.67;13.60;;;12.60;86.60;;;;;;5054295;28;20420;-75
2022/05/07 06:47:19;;;;;;;20.30;13.20;;;12.70;86.00;;;;;;5052879;28;20925;-75
2022/05/07 06:49:44;;;;;;;26.60;14.40;;;12.80;85.30;;;;;;5052134;28;20601;-76
2022/05/07 06:52:10;;;;;;;28.10;13.57;;;12.80;85.00;;;;;;5052503;28;20989;-77
2022/05/07 06:54:36;;;;;;;21.53;13.00;;;12.90;84.10;;;;;;5054461;28;20200;-76
2022/05/07 06:57:03;;;;;;;23.27;13.40;;;13.00;83.60;;;;;;5057332;28;20960;-75
2022/05/07 06:59:32;;;;;;;21.67;13.47;;;13.00;83.60;;;;;;5057973;28;20463;-76
2022/05/07 07:01:59;;;;;;;22.77;13.57;;;13.00;83.30;;;;;;5054274;28;20429;-75
2022/05/07 07:04:25;;;;;;;24.07;13.87;;;13.10;83.30;;;;;;5052447;28;20861;-78
2022/05/07 07:06:51;;;;;;;24.20;14.10;;;13.10;83.40;;;;;;5051434;28;20447;-75
2022/05/07 07:09:18;;;;;;;27.77;13.57;;;13.20;83.10;;;;;;5052052;28;20451;-76
2022/05/07 07:11:44;;;;;;;22.77;12.70;;;13.30;82.80;;;;;;5051744;28;20453;-76
2022/05/07 07:14:10;;;;;;;27.00;13.80;;;13.40;82.40;;;;;;5052278;28;20419;-76
2022/05/07 07:16:36;;;;;;;21.87;11.90;;;13.50;81.70;;;;;;5048256;28;20807;-75
2022/05/07 07:19:02;;;;;;;22.00;12.67;;;13.60;81.10;;;;;;5051299;28;20562;-75
2022/05/07 07:21:28;;;;;;;25.10;13.60;;;13.70;80.60;;;;;;5054652;28;20454;-75
2022/05/07 07:23:54;;;;;;;23.67;13.70;;;13.80;80.20;;;;;;5054700;28;20506;-77
2022/05/07 07:26:20;;;;;;;19.60;13.17;;;13.80;79.70;;;;;;5054615;28;20967;-75
2022/05/07 07:28:47;;;;;;;19.67;12.60;;;13.90;79.70;;;;;;5054109;28;20538;-76
2022/05/07 07:31:13;;;;;;;19.83;11.93;;;14.00;79.50;;;;;;5054026;28;20461;-74
2022/05/07 07:33:39;;;;;;;40.07;13.60;;;14.00;78.90;;;;;;5054155;28;20431;-73
2022/05/07 07:36:11;;;;;;;21.13;12.63;;;14.10;78.90;;;;;;5055309;28;20477;-75
2022/05/07 07:38:38;;;;;;;22.30;13.50;;;14.20;78.90;;;;;;5054942;28;20926;-75
2022/05/07 07:41:07;;;;;;;21.37;11.93;;;14.30;77.30;;;;;;5054748;28;20438;-76
2022/05/07 07:43:33;;;;;;;19.13;12.40;;;14.40;76.80;;;;;;5054739;28;20418;-75
2022/05/07 07:48:46;;;;;;;21.47;11.33;;;14.50;75.90;;;;;;5054570;28;20407;-75
2022/05/07 07:51:11;;;;;;;18.77;11.23;;;14.50;75.10;;;;;;5054377;28;20439;-78
2022/05/07 07:53:38;;;;;;;17.73;10.67;;;14.60;75.70;;;;;;5053877;28;20854;-75
2022/05/07 07:56:04;;;;;;;18.67;12.03;;;14.70;74.60;;;;;;5055437;28;20411;-75
2022/05/07 07:58:30;;;;;;;25.33;13.23;;;14.70;74.50;;;;;;5054314;28;20481;-75
2022/05/07 08:00:56;;;;;;;20.50;11.80;;;14.80;74.80;;;;;;5051603;28;21136;-75
2022/05/07 08:03:22;;;;;;;21.43;12.00;;;14.90;74.60;;;;;;5054501;28;20517;-75
2022/05/07 08:05:53;;;;;;;17.10;10.83;;;15.00;73.70;;;;;;5055972;28;20219;-75
2022/05/07 08:14:02;;;;;;;19.27;12.30;;;15.20;72.60;;;;;;5047057;28;20415;-75
2022/05/07 08:16:28;;;;;;;18.07;11.90;;;15.30;72.40;;;;;;5054161;28;20424;-75
2022/05/07 08:18:54;;;;;;;19.43;12.03;;;15.40;72.60;;;;;;5052611;28;20243;-75
2022/05/07 08:21:20;;;;;;;21.13;12.67;;;15.50;71.70;;;;;;5049954;28;20239;-75
2022/05/07 08:23:46;;;;;;;17.93;12.57;;;15.50;71.60;;;;;;5051786;28;20419;-74
2022/05/07 08:26:12;;;;;;;18.00;11.53;;;15.50;71.60;;;;;;5050644;28;20995;-76
2022/05/07 08:28:39;;;;;;;21.77;12.90;;;15.60;71.10;;;;;;5052042;28;20488;-75
2022/05/07 08:31:05;;;;;;;17.80;11.30;;;15.70;70.20;;;;;;5052237;28;20439;-75
2022/05/07 08:33:32;;;;;;;20.60;12.90;;;15.70;70.20;;;;;;5052156;28;20430;-73
2022/05/07 08:35:58;;;;;;;19.10;12.83;;;15.80;70.20;;;;;;5051961;28;20419;-77
2022/05/07 08:38:24;;;;;;;22.20;14.10;;;15.90;70.20;;;;;;5053044;28;20834;-75
2022/05/07 08:40:51;;;;;;;23.57;13.53;;;16.00;70.70;;;;;;5058611;28;20448;-74
2022/05/07 08:43:17;;;;;;;26.33;15.00;;;16.10;71.00;;;;;;5053946;28;20418;-75
2022/05/07 08:45:44;;;;;;;23.50;14.00;;;16.20;70.40;;;;;;5051357;28;20419;-75
2022/05/07 08:48:10;;;;;;;21.63;13.97;;;16.40;70.10;;;;;;5058894;28;20426;-75
2022/05/07 08:50:41;;;;;;;28.30;14.50;;;16.50;69.80;;;;;;5059162;28;20442;-74
2022/05/07 08:53:07;;;;;;;22.70;13.30;;;16.60;69.80;;;;;;5052861;28;20445;-76
2022/05/07 08:55:33;;;;;;;23.03;14.37;;;16.60;69.80;;;;;;5049660;28;20426;-76
2022/05/07 08:58:00;;;;;;;26.10;15.17;;;16.60;69.50;;;;;;5049480;28;20884;-75
2022/05/07 09:00:27;;;;;;;23.10;15.50;;;16.70;69.70;;;;;;5049521;28;20212;-76
2022/05/07 09:03:01;;;;;;;22.10;14.20;;;16.90;69.40;;;;;;5049695;28;20415;-76
2022/05/07 09:05:37;;;;;;;20.23;12.70;;;17.00;68.90;;;;;;5051268;28;20423;-76
2022/05/07 09:08:07;;;;;;;24.50;15.03;;;17.10;69.20;;;;;;5052543;28;20414;-76
2022/05/07 09:10:35;;;;;;;26.47;15.10;;;17.10;68.80;;;;;;5053842;28;20443;-75
2022/05/07 09:13:10;;;;;;;24.57;14.63;;;17.20;67.70;;;;;;5049082;28;20430;-76
2022/05/07 09:15:37;;;;;;;25.13;14.37;;;17.20;67.60;;;;;;5052343;28;20498;-75
2022/05/07 09:18:13;;;;;;;24.70;13.77;;;17.20;68.20;;;;;;5053022;28;20956;-76
2022/05/07 09:20:39;;;;;;;20.00;12.93;;;17.30;67.00;;;;;;5053029;28;20442;-74
2022/05/07 09:23:04;;;;;;;20.47;11.93;;;17.40;65.70;;;;;;5052684;28;20484;-75
2022/05/07 09:25:30;;;;;;;17.87;11.77;;;17.50;64.70;;;;;;5055206;28;20234;-76
2022/05/07 09:27:57;;;;;;;18.43;11.40;;;17.60;64.40;;;;;;5055042;28;20280;-76
2022/05/07 09:30:27;;;;;;;18.30;10.40;;;17.60;65.10;;;;;;5056873;28;20200;-74
2022/05/07 09:32:54;;;;;;;13.10;9.40;;;17.70;62.80;;;;;;5057283;28;20584;-74
2022/05/07 09:38:13;;;;;;;14.80;9.63;;;17.80;62.00;;;;;;5053481;28;20457;-74
2022/05/07 09:40:41;;;;;;;13.70;9.43;;;17.90;61.30;;;;;;5053026;28;20467;-76
2022/05/07 09:43:11;;;;;;;14.70;8.30;;;18.00;60.90;;;;;;5053172;28;20422;-77
2022/05/07 09:45:38;;;;;;;11.40;7.67;;;18.00;60.00;;;;;;5053141;28;20457;-76
2022/05/07 09:48:06;;;;;;;11.87;6.83;;;18.10;60.00;;;;;;5052925;28;20526;-74
2022/05/07 09:58:36;;;;;;;7.93;5.40;;;18.60;52.00;;;;;;5051498;28;20470;-76
2022/05/07 10:01:30;;;;;;;7.30;4.90;;;18.80;51.40;;;;;;5053664;28;20454;-75
2022/05/07 10:04:33;;;;;;;6.30;4.20;;;19.00;51.00;;;;;;5054809;28;20180;-76
2022/05/07 10:07:36;;;;;;;9.23;4.23;;;19.30;49.70;;;;;;5040671;28;20498;-75
2022/05/07 10:10:28;;;;;;;5.33;3.30;;;19.40;49.50;;;;;;5061050;28;20564;-75
2022/05/07 10:12:56;;;;;;;3.50;2.77;;;19.50;45.80;;;;;;5058489;28;20427;-76
2022/05/07 10:15:24;;;;;;;8.43;4.30;;;19.60;45.80;;;;;;5053791;28;20445;-75
2022/05/07 10:18:16;;;;;;;11.50;4.40;;;20.00;47.40;;;;;;5052575;28;20525;-75
2022/05/07 10:20:47;;;;;;;4.97;4.27;;;20.30;47.30;;;;;;5051086;28;20570;-76
2022/05/07 10:23:14;;;;;;;5.47;4.03;;;20.20;46.50;;;;;;5053217;28;20411;-75
2022/05/07 10:25:45;;;;;;;6.03;3.70;;;20.10;45.00;;;;;;5053916;28;20447;-75
2022/05/07 10:28:15;;;;;;;4.47;3.60;;;20.40;44.20;;;;;;5054027;28;20421;-74
2022/05/07 10:30:51;;;;;;;4.90;2.87;;;20.80;42.80;;;;;;5057882;28;20543;-76
2022/05/07 10:33:18;;;;;;;6.00;3.40;;;20.80;39.80;;;;;;5059048;28;20437;-74
2022/05/07 10:35:52;;;;;;;4.70;3.70;;;21.20;41.50;;;;;;5055104;28;20427;-76
2022/05/07 10:38:36;;;;;;;7.80;3.50;;;21.30;42.40;;;;;;5052540;28;20474;-77
2022/05/07 10:41:07;;;;;;;6.20;4.20;;;21.40;43.00;;;;;;5048417;28;20488;-73
2022/05/07 10:43:39;;;;;;;6.87;4.93;;;21.40;43.10;;;;;;5056543;28;20431;-76
2022/05/07 10:46:08;;;;;;;8.60;4.47;;;21.20;44.90;;;;;;5054211;28;20416;-76
2022/05/07 10:48:55;;;;;;;8.80;4.90;;;20.60;46.30;;;;;;5051949;28;20415;-76
2022/05/07 10:51:32;;;;;;;7.90;4.63;;;20.30;47.50;;;;;;5052071;28;20480;-76
2022/05/07 10:54:03;;;;;;;7.63;5.23;;;20.50;47.80;;;;;;5044415;28;20435;-76
2022/05/07 10:56:34;;;;;;;7.20;5.50;;;20.30;49.00;;;;;;5051839;28;20869;-76
2022/05/07 10:59:01;;;;;;;10.40;5.83;;;20.30;48.90;;;;;;5043916;28;20546;-75
2022/05/07 11:01:29;;;;;;;6.00;4.93;;;20.20;48.70;;;;;;5051603;28;20621;-74
2022/05/07 11:04:04;;;;;;;7.00;4.80;;;20.10;49.10;;;;;;5051879;28;20428;-76
2022/05/07 11:06:44;;;;;;;8.47;5.53;;;20.10;49.00;;;;;;5051516;28;20498;-76
2022/05/07 11:09:15;;;;;;;9.10;5.17;;;20.10;50.10;;;;;;5051577;28;20455;-75
2022/05/07 11:11:45;;;;;;;10.50;5.90;;;19.90;50.50;;;;;;5047063;28;20440;-76
2022/05/07 11:14:23;;;;;;;8.60;5.40;;;20.10;49.80;;;;;;5053680;28;20455;-75
2022/05/07 11:16:49;;;;;;;5.33;4.90;;;20.50;48.70;;;;;;5054237;28;20426;-75
2022/05/07 11:19:34;;;;;;;8.80;5.40;;;20.70;47.80;;;;;;5053801;28;20543;-75
2022/05/07 11:22:03;;;;;;;7.80;4.90;;;20.70;47.30;;;;;;5053741;28;20415;-75
2022/05/07 11:24:31;;;;;;;8.23;5.20;;;20.90;47.40;;;;;;5053499;28;20431;-75
2022/05/07 11:26:59;;;;;;;8.70;4.77;;;21.50;45.90;;;;;;5043957;28;20424;-76
2022/05/07 11:29:26;;;;;;;5.50;4.70;;;21.60;44.30;;;;;;5052225;28;20508;-75
2022/05/07 11:31:56;;;;;;;5.60;4.20;;;21.50;45.30;;;;;;5051127;28;20520;-76
2022/05/07 11:34:33;;;;;;;5.87;4.10;;;21.30;44.50;;;;;;5050389;28;21042;-75
2022/05/07 11:37:16;;;;;;;11.03;4.30;;;21.30;45.30;;;;;;5051190;28;20460;-78
2022/05/07 11:39:52;;;;;;;8.03;4.10;;;21.40;44.90;;;;;;5050843;28;20461;-76
2022/05/07 11:42:27;;;;;;;11.17;4.50;;;21.50;44.90;;;;;;5051093;28;20760;-75
2022/05/07 11:47:38;;;;;;;6.80;3.90;;;22.00;42.00;;;;;;5049300;28;21103;-75
2022/05/07 11:50:07;;;;;;;4.70;3.40;;;21.70;41.50;;;;;;5051799;28;20469;-76
2022/05/07 11:52:34;;;;;;;5.47;4.20;;;21.30;42.30;;;;;;5051631;28;20245;-76
2022/05/07 11:55:06;;;;;;;8.10;4.60;;;21.20;42.40;;;;;;5051465;28;20939;-74
2022/05/07 11:57:35;;;;;;;7.30;4.53;;;21.30;42.80;;;;;;5050498;28;20510;-75
2022/05/07 12:00:18;;;;;;;6.30;4.00;;;21.50;43.20;;;;;;5048789;28;20511;-76
2022/05/07 12:02:51;;;;;;;8.93;3.60;;;21.70;42.40;;;;;;5050152;28;21157;-74
2022/05/07 12:05:17;;;;;;;5.30;3.50;;;21.90;40.40;;;;;;5050729;28;20923;-76
2022/05/07 12:07:46;;;;;;;6.90;3.20;;;21.90;40.40;;;;;;5050678;28;20426;-76
2022/05/07 12:10:12;;;;;;;5.50;3.53;;;21.90;39.90;;;;;;5050793;28;21406;-75
2022/05/07 12:12:37;;;;;;;4.60;3.50;;;21.50;41.00;;;;;;5052749;28;20422;-76
2022/05/07 12:15:03;;;;;;;5.67;3.63;;;21.40;40.80;;;;;;5056703;28;20182;-76
2022/05/07 12:20:13;;;;;;;7.00;2.80;;;21.40;41.00;;;;;;5051278;28;20437;-76
2022/05/07 12:30:52;;;;;;;5.30;3.70;;;21.80;41.90;;;;;;5050379;28;20510;-77
2022/05/07 12:33:17;;;;;;;5.70;4.00;;;21.60;42.80;;;;;;5050779;28;20433;-76
2022/05/07 12:35:43;;;;;;;6.23;4.03;;;21.20;43.90;;;;;;5049984;28;20268;-75
2022/05/07 12:38:10;;;;;;;8.23;4.03;;;21.10;44.20;;;;;;5050084;28;20202;-75
2022/05/07 12:40:36;;;;;;;5.50;3.87;;;21.20;44.60;;;;;;5049623;28;20200;-73
2022/05/07 12:43:02;;;;;;;5.73;3.97;;;21.00;44.50;;;;;;5049455;28;20416;-74
2022/05/07 12:45:28;;;;;;;6.53;3.73;;;20.90;45.30;;;;;;5049983;28;20194;-76
2022/05/07 12:47:53;;;;;;;4.60;3.40;;;20.80;44.90;;;;;;5050424;28;20264;-76
2022/05/07 12:50:19;;;;;;;4.03;3.40;;;21.00;44.30;;;;;;5050278;28;20204;-75
2022/05/07 12:52:45;;;;;;;5.90;3.90;;;21.30;43.90;;;;;;5049738;28;20205;-76
2022/05/07 12:55:11;;;;;;;7.30;3.70;;;21.80;42.70;;;;;;5050216;28;20190;-78
2022/05/07 12:57:37;;;;;;;6.10;3.30;;;22.00;42.20;;;;;;5050599;28;20329;-75
2022/05/07 13:00:04;;;;;;;4.47;3.70;;;22.10;41.80;;;;;;5050155;28;20953;-75
2022/05/07 13:02:30;;;;;;;8.27;3.73;;;22.20;41.20;;;;;;5049953;28;20187;-75
2022/05/07 13:04:56;;;;;;;5.10;4.20;;;22.40;41.50;;;;;;5050307;28;20451;-75
2022/05/07 13:07:22;;;;;;;5.57;4.97;;;22.50;40.80;;;;;;5050303;28;20997;-76
2022/05/07 13:09:48;;;;;;;8.03;4.13;;;22.70;39.90;;;;;;5049701;28;20246;-75
2022/05/07 13:12:13;;;;;;;4.57;3.23;;;22.80;38.80;;;;;;5049672;28;20187;-75
2022/05/07 13:14:40;;;;;;;5.70;3.83;;;22.70;39.40;;;;;;5049665;28;20195;-75
2022/05/07 13:17:06;;;;;;;5.70;3.50;;;23.10;39.60;;;;;;5049541;28;20763;-76
2022/05/07 13:19:31;;;;;;;4.33;3.33;;;23.30;38.70;;;;;;5049230;28;20466;-75
2022/05/07 13:21:57;;;;;;;4.20;3.67;;;23.20;39.50;;;;;;5049796;28;20551;-74
2022/05/07 13:24:23;;;;;;;7.80;3.97;;;23.60;39.00;;;;;;5051296;28;20241;-75
2022/05/07 13:26:49;;;;;;;5.50;3.50;;;23.90;37.60;;;;;;5053059;28;20178;-76